Monday, August 20, 2018, 7:43 AM CDT
Back to Local

KMDW, Chicago Midway Airport

Location: Chicago, IL, United States Lat: 41.783
Local Time: 7:43 AM CDT (12:43 GMT) Lon: -87.75
Time Zone: US/Central Elev: 620 ft

Show me the last for .
Show Coded

Time T Td Feel RH Dir Speed Gust Alt SLP Vis Weather Sky Remarks
2018-08-20 06:53 72 64 76 76 120° 9 - 29.91 29.88 10 BKN250 6-hr Min Temp (7am): 71.1°F
6-hr Max Temp (7am): 75.9°F
2018-08-20 05:53 72 64 76 76 120° 9 - 29.91 29.88 10 BKN250 None
2018-08-20 04:53 72 64 76 76 110° 10 - 29.92 29.89 10 FEW050 BKN250 None
2018-08-20 03:53 73 64 77 73 110° 9 - 29.93 29.89 10 FEW050 BKN250 None
2018-08-20 02:53 74 65 77 73 140° 8 - 29.94 29.90 10 FEW050 OVC250 None
2018-08-20 01:53 75 65 78 70 130° 10 - 29.94 29.90 10 FEW050 OVC250 None
2018-08-20 00:53 76 66 79 71 120° 8 - 29.94 29.91 10 FEW050 OVC250 6-hr Min Temp (1am): 75.9°F
6-hr Max Temp (1am): 79.0°F
24-hr Min Temp (1am): 68.0°F
24-hr Max Temp (1am): 84.9°F
2018-08-19 23:53 77 67 80 71 120° 8 - 29.96 29.92 10 FEW050 OVC250 None
2018-08-19 22:53 78 69 82 73 130° 7 - 29.96 29.93 10 FEW050 OVC250 None
2018-08-19 21:53 78 71 82 79 100° 10 - 29.96 29.93 10 FEW050 OVC250 None
2018-08-19 20:53 78 70 82 76 90° 12 - 29.95 29.92 10 FEW065 OVC250 None
2018-08-19 19:53 78 70 82 76 90° 9 - 29.95 29.92 10 FEW055 OVC250 None
2018-08-19 18:53 79 69 82 71 90° 9 - 29.94 29.91 10 OVC250 6-hr Precip Total (7pm): 0.00"
6-hr Min Temp (7pm): 79.0°F
6-hr Max Temp (7pm): 84.9°F
2018-08-19 17:53 80 69 84 69 80° 15 - 29.94 29.91 10 FEW070 BKN250 None
2018-08-19 16:53 82 69 86 64 80° 13 - 29.94 29.90 10 FEW070 BKN250 None
2018-08-19 15:53 85 68 89 57 80° 12 - 29.95 29.91 10 FEW041 SCT065 BKN075 BKN250 6-hr Precip Total (4pm): 0.00"
2018-08-19 14:53 83 68 86 60 80° 7 - 29.97 29.93 10 FEW037 BKN050 BKN060 BKN250 1-hr Precip Total: Trace
2018-08-19 13:53 81 67 84 62 50° 6 - 29.98 29.95 10 SCT035 BKN047 BKN070 BKN250 None
2018-08-19 12:53 82 67 85 60 50° 8 - 29.99 29.96 10 SCT035 BKN044 BKN070 6-hr Min Temp (1pm): 71.1°F
6-hr Max Temp (1pm): 84.0°F
2018-08-19 11:53 83 67 86 58 110° 10 - 29.99 29.96 10 SCT035 None
2018-08-19 10:53 81 66 84 60 80° 6 - 29.99 29.96 10 SCT035 None
2018-08-19 09:53 80 67 83 64 - Calm - 30.00 29.97 10 FEW035 None
2018-08-19 08:53 78 67 81 68 110° 7 - 29.99 29.96 10 FEW016 None
2018-08-19 07:53 75 69 79 81 40° 3 - 29.98 29.96 10 FEW016 FEW050 None

Support USWX by starting your Amazon purchase here.